createdAt,value
2022-10-19T00:00:26.221Z,37.20
2022-10-19T00:01:27.668Z,47.50
2022-10-19T00:02:29.178Z,30.80
2022-10-19T00:03:30.840Z,34.38
2022-10-19T00:04:32.270Z,37.28
2022-10-19T00:05:35.057Z,36.33
2022-10-19T00:06:37.705Z,31.98
2022-10-19T00:07:39.209Z,40.08
2022-10-19T00:08:41.691Z,31.02
2022-10-19T00:09:43.810Z,24.83
2022-10-19T00:10:45.243Z,25.23
2022-10-19T00:11:48.533Z,37.47
2022-10-19T00:12:50.179Z,38.60
2022-10-19T00:13:52.288Z,39.63
2022-10-19T00:14:53.742Z,41.17
2022-10-19T00:15:55.184Z,33.65
2022-10-19T00:16:56.639Z,37.63
2022-10-19T00:17:58.037Z,37.13
2022-10-19T00:19:01.613Z,39.45
2022-10-19T00:20:03.702Z,34.25
2022-10-19T00:21:08.579Z,37.55
2022-10-19T00:22:13.046Z,45.95
2022-10-19T00:23:15.633Z,36.92
2022-10-19T00:24:17.310Z,41.13
2022-10-19T00:25:18.799Z,42.13
2022-10-19T00:26:20.375Z,40.38
2022-10-19T00:27:21.803Z,40.97
2022-10-19T00:28:23.294Z,38.70
2022-10-19T00:29:24.747Z,43.17
2022-10-19T00:30:26.169Z,39.72
2022-10-19T00:31:27.749Z,42.20
2022-10-19T00:32:29.195Z,44.72
2022-10-19T00:33:30.625Z,39.78
2022-10-19T00:34:32.062Z,42.20
2022-10-19T00:35:33.500Z,50.47
2022-10-19T00:36:39.156Z,40.15
2022-10-19T00:37:40.576Z,46.75
2022-10-19T00:38:42.239Z,39.95
2022-10-19T00:39:43.773Z,43.08
2022-10-19T00:40:45.863Z,40.20
2022-10-19T00:41:47.994Z,51.67
2022-10-19T00:42:54.400Z,41.85
2022-10-19T00:43:59.413Z,46.45
2022-10-19T00:45:11.152Z,40.15
2022-10-19T00:46:13.388Z,38.90
2022-10-19T00:47:17.142Z,38.45
2022-10-19T00:48:22.528Z,41.47
2022-10-19T00:49:26.835Z,31.85
2022-10-19T00:50:28.308Z,33.95
2022-10-19T00:51:31.889Z,41.42
2022-10-19T00:52:35.111Z,32.70
2022-10-19T00:53:37.011Z,36.92
2022-10-19T00:54:40.783Z,35.55
2022-10-19T00:55:43.098Z,38.10
2022-10-19T00:56:47.504Z,36.42
2022-10-19T00:57:49.026Z,34.28
2022-10-19T00:58:50.497Z,37.03
2022-10-19T00:59:52.192Z,35.80
2022-10-19T01:00:53.809Z,41.47
2022-10-19T01:01:55.533Z,44.35
2022-10-19T01:02:57.959Z,66.13
2022-10-19T01:03:59.741Z,173.13
2022-10-19T01:05:01.774Z,893.35
2022-10-19T01:06:03.676Z,658.55
2022-10-19T01:07:06.696Z,42.58
2022-10-19T01:08:11.460Z,285.20
2022-10-19T01:09:13.087Z,319.05
2022-10-19T01:10:14.848Z,60.78
2022-10-19T01:11:26.807Z,47.95
2022-10-19T01:12:54.850Z,44.90
2022-10-19T01:14:09.979Z,62.65
2022-10-19T01:15:20.764Z,47.55
2022-10-19T01:16:31.944Z,42.55
2022-10-19T01:17:45.043Z,48.00
2022-10-19T01:18:58.089Z,51.58
2022-10-19T01:20:50.157Z,45.05
2022-10-19T01:22:05.318Z,41.03
2022-10-19T01:23:34.081Z,35.53
2022-10-19T01:24:51.861Z,359.83
2022-10-19T01:26:02.936Z,103.88
2022-10-19T01:27:29.004Z,231.80
2022-10-19T01:28:44.253Z,930.08
2022-10-19T01:30:04.532Z,1011.88
2022-10-19T01:31:16.963Z,821.65
2022-10-19T01:32:25.096Z,591.50
2022-10-19T01:33:35.774Z,656.85
2022-10-19T01:34:45.023Z,607.53
2022-10-19T01:35:55.541Z,737.70
2022-10-19T01:37:02.449Z,772.10
2022-10-19T01:38:21.914Z,746.17
2022-10-19T01:39:30.435Z,694.20
2022-10-19T01:40:40.371Z,732.80
2022-10-19T01:41:49.267Z,609.05
2022-10-19T01:42:58.672Z,485.40
2022-10-19T01:44:07.770Z,446.15
2022-10-19T01:45:15.930Z,541.22
2022-10-19T01:46:22.862Z,489.15
2022-10-19T01:47:28.100Z,574.42
2022-10-19T01:48:34.526Z,607.15
2022-10-19T01:49:41.302Z,616.40
2022-10-19T01:50:47.594Z,693.47
2022-10-19T01:51:53.868Z,718.38
2022-10-19T01:52:57.153Z,660.22
2022-10-19T01:54:04.734Z,645.97
2022-10-19T01:55:10.342Z,685.78
2022-10-19T01:56:12.703Z,757.72
2022-10-19T01:57:18.674Z,778.38
2022-10-19T01:58:26.255Z,795.67
2022-10-19T01:59:28.803Z,904.28
2022-10-19T02:00:35.211Z,1014.40
2022-10-19T02:01:41.292Z,848.22
2022-10-19T02:02:45.960Z,877.80
2022-10-19T02:03:48.678Z,972.03
2022-10-19T02:04:51.705Z,892.30
2022-10-19T02:05:54.451Z,820.20
2022-10-19T02:06:56.821Z,814.05
2022-10-19T02:08:01.110Z,715.10
2022-10-19T02:09:02.555Z,762.97
2022-10-19T02:10:04.643Z,763.20
2022-10-19T02:11:06.454Z,720.55
2022-10-19T02:12:10.828Z,804.45
2022-10-19T02:13:15.000Z,844.53
2022-10-19T02:14:19.097Z,802.47
2022-10-19T02:15:23.527Z,833.08
2022-10-19T02:16:30.164Z,904.08
2022-10-19T02:17:35.416Z,1003.55
2022-10-19T02:18:44.663Z,852.20
2022-10-19T02:19:46.133Z,890.25
2022-10-19T02:20:47.986Z,809.67
2022-10-19T02:21:51.418Z,989.35
2022-10-19T02:22:52.880Z,1049.05
2022-10-19T02:23:54.494Z,1011.95
2022-10-19T02:24:56.048Z,1069.82
2022-10-19T02:25:58.311Z,1043.18
2022-10-19T02:27:00.552Z,1017.80
2022-10-19T02:28:04.149Z,835.67
2022-10-19T02:29:05.953Z,823.63
2022-10-19T02:30:08.910Z,746.10
2022-10-19T02:31:10.697Z,775.85
2022-10-19T02:32:13.492Z,751.15
2022-10-19T02:33:15.616Z,724.92
2022-10-19T02:34:17.158Z,735.97
2022-10-19T02:35:18.852Z,653.30
2022-10-19T02:36:20.830Z,609.22
2022-10-19T02:37:25.529Z,622.60
2022-10-19T02:38:27.566Z,630.35
2022-10-19T02:39:29.314Z,659.28
2022-10-19T02:40:33.434Z,610.67
2022-10-19T02:41:39.295Z,690.53
2022-10-19T02:42:47.030Z,649.22
2022-10-19T02:43:51.428Z,706.53
2022-10-19T02:44:59.939Z,611.58
2022-10-19T02:46:05.567Z,632.53
2022-10-19T02:47:12.412Z,611.10
2022-10-19T02:48:21.661Z,649.08
2022-10-19T02:49:23.565Z,709.35
2022-10-19T02:50:25.409Z,630.38
2022-10-19T02:51:31.520Z,577.45
2022-10-19T02:52:33.002Z,587.22
2022-10-19T02:53:34.423Z,538.75
2022-10-19T02:54:38.879Z,495.75
2022-10-19T02:56:47.252Z,474.60
2022-10-19T02:57:48.723Z,591.90
2022-10-19T02:58:50.146Z,552.67
2022-10-19T02:59:52.492Z,536.67
2022-10-19T03:00:54.690Z,600.15
2022-10-19T03:01:56.145Z,513.35
2022-10-19T03:02:57.606Z,561.72
2022-10-19T03:04:00.397Z,346.52
2022-10-19T03:05:01.997Z,405.73
2022-10-19T03:06:03.636Z,441.13
2022-10-19T03:07:05.177Z,415.30
2022-10-19T03:08:06.586Z,629.42
2022-10-19T03:09:08.139Z,376.77
2022-10-19T03:10:10.034Z,585.42
2022-10-19T03:11:11.448Z,560.85
2022-10-19T03:12:13.924Z,489.25
2022-10-19T03:13:15.355Z,444.92
2022-10-19T03:14:16.821Z,548.55
2022-10-19T03:15:19.067Z,461.10
2022-10-19T03:16:20.489Z,418.13
2022-10-19T03:17:22.047Z,514.65
2022-10-19T03:18:23.547Z,464.70
2022-10-19T03:19:26.415Z,505.90
2022-10-19T03:20:27.844Z,506.85
2022-10-19T03:21:29.300Z,561.35
2022-10-19T03:22:30.721Z,437.83
2022-10-19T03:23:32.172Z,528.35
2022-10-19T03:24:34.003Z,476.13
2022-10-19T03:25:35.481Z,539.33
2022-10-19T03:26:36.947Z,440.75
2022-10-19T03:27:38.365Z,433.27
2022-10-19T03:28:40.139Z,530.25
2022-10-19T03:29:41.621Z,444.52
2022-10-19T03:30:43.073Z,493.33
2022-10-19T03:31:44.555Z,433.58
2022-10-19T03:32:46.090Z,490.23
2022-10-19T03:33:47.551Z,520.30
2022-10-19T03:34:50.287Z,491.35
2022-10-19T03:36:11.839Z,477.02
2022-10-19T03:37:13.243Z,570.00
2022-10-19T03:38:14.726Z,435.20
2022-10-19T03:39:17.151Z,475.27
2022-10-19T03:40:18.589Z,418.02
2022-10-19T03:41:20.606Z,436.35
2022-10-19T03:42:22.030Z,420.35
2022-10-19T03:43:23.455Z,443.80
2022-10-19T03:44:25.044Z,481.50
2022-10-19T03:45:26.498Z,561.65
2022-10-19T03:46:28.233Z,500.40
2022-10-19T03:47:29.830Z,508.33
2022-10-19T03:48:31.292Z,503.00
2022-10-19T03:49:34.643Z,531.92
2022-10-19T03:50:39.543Z,447.85
2022-10-19T03:51:41.130Z,508.42
2022-10-19T03:52:42.579Z,557.95
2022-10-19T03:53:44.569Z,499.38
2022-10-19T03:54:46.300Z,510.00
2022-10-19T03:55:47.837Z,475.13
2022-10-19T03:56:49.258Z,526.25
2022-10-19T03:57:50.684Z,418.55
2022-10-19T03:58:54.238Z,469.38
2022-10-19T03:59:55.677Z,531.10
2022-10-19T04:00:57.151Z,453.40
2022-10-19T04:01:58.588Z,435.60
2022-10-19T04:03:00.056Z,545.88
2022-10-19T04:04:04.341Z,537.78
2022-10-19T04:05:07.056Z,453.02
2022-10-19T04:06:15.759Z,574.63
2022-10-19T04:07:19.753Z,476.50
2022-10-19T04:08:21.207Z,654.55
2022-10-19T04:09:23.129Z,438.77
2022-10-19T04:10:24.791Z,491.45
2022-10-19T04:11:28.548Z,453.65
2022-10-19T04:12:30.052Z,331.52
2022-10-19T04:13:33.311Z,291.65
2022-10-19T04:14:52.388Z,334.77
2022-10-19T04:15:56.739Z,526.45
2022-10-19T04:16:58.210Z,373.85
2022-10-19T04:17:59.688Z,434.25
2022-10-19T04:19:01.340Z,324.20
2022-10-19T04:20:03.023Z,355.05
2022-10-19T04:21:05.701Z,512.33
2022-10-19T04:22:08.471Z,343.42
2022-10-19T04:23:09.963Z,542.05
2022-10-19T04:24:13.659Z,303.17
2022-10-19T04:25:15.221Z,400.65
2022-10-19T04:26:17.070Z,302.30
2022-10-19T04:27:18.537Z,389.42
2022-10-19T04:28:20.053Z,369.35
2022-10-19T04:29:26.481Z,371.58
2022-10-19T04:30:31.206Z,413.08
2022-10-19T04:31:32.788Z,279.20
2022-10-19T04:32:34.208Z,408.70
2022-10-19T04:33:35.747Z,222.50
2022-10-19T04:34:39.893Z,433.98
2022-10-19T04:35:41.705Z,373.25
2022-10-19T04:36:43.189Z,296.15
2022-10-19T04:37:45.987Z,422.70
2022-10-19T04:38:47.693Z,593.20
2022-10-19T04:39:49.167Z,385.35
2022-10-19T04:40:50.624Z,494.60
2022-10-19T04:41:52.058Z,556.85
2022-10-19T04:42:53.486Z,342.48
2022-10-19T04:43:57.287Z,469.67
2022-10-19T04:44:58.742Z,505.80
2022-10-19T04:46:02.960Z,366.40
2022-10-19T04:47:04.451Z,205.75
2022-10-19T04:48:06.188Z,229.15
2022-10-19T04:49:07.701Z,219.90
2022-10-19T04:50:09.712Z,395.58
2022-10-19T04:51:11.804Z,460.15
2022-10-19T04:52:13.249Z,213.80
2022-10-19T04:53:16.115Z,327.77
2022-10-19T04:54:17.586Z,349.38
2022-10-19T04:55:19.162Z,323.13
2022-10-19T04:56:22.583Z,335.80
2022-10-19T04:57:24.059Z,240.05
2022-10-19T04:58:25.828Z,273.33
2022-10-19T04:59:27.250Z,296.15
2022-10-19T05:00:28.663Z,278.55
2022-10-19T05:01:30.985Z,262.67
2022-10-19T05:02:32.642Z,333.00
2022-10-19T05:03:34.126Z,358.20
2022-10-19T05:04:35.589Z,372.65
2022-10-19T05:05:37.034Z,305.20
2022-10-19T05:06:38.487Z,605.47
2022-10-19T05:07:39.949Z,340.42
2022-10-19T05:08:42.790Z,444.70
2022-10-19T05:09:44.291Z,471.10
2022-10-19T05:10:47.708Z,263.95
2022-10-19T05:11:49.448Z,332.30
2022-10-19T05:12:50.886Z,239.13
2022-10-19T05:13:52.395Z,286.65
2022-10-19T05:14:53.816Z,340.63
2022-10-19T05:15:56.574Z,345.50
2022-10-19T05:16:58.109Z,412.60
2022-10-19T05:17:59.770Z,242.50
2022-10-19T05:19:01.253Z,324.98
2022-10-19T05:20:02.823Z,288.13
2022-10-19T05:21:06.174Z,332.67
2022-10-19T05:22:08.632Z,295.02
2022-10-19T05:23:10.055Z,391.80
2022-10-19T05:24:13.116Z,122.63
2022-10-19T05:25:14.768Z,292.15
2022-10-19T05:26:18.183Z,257.55
2022-10-19T05:27:19.666Z,182.80
2022-10-19T05:28:21.138Z,189.38
2022-10-19T05:29:22.683Z,194.00
2022-10-19T05:30:24.132Z,198.02
2022-10-19T05:31:28.297Z,162.32
2022-10-19T05:32:29.793Z,256.73
2022-10-19T05:33:31.221Z,388.55
2022-10-19T05:34:32.656Z,285.60
2022-10-19T05:35:34.089Z,335.70
2022-10-19T05:36:38.009Z,204.60
2022-10-19T05:37:39.427Z,174.43
2022-10-19T05:38:41.286Z,328.52
2022-10-19T05:39:44.050Z,108.30
2022-10-19T05:40:48.305Z,229.48
2022-10-19T05:41:52.916Z,164.48
2022-10-19T05:42:54.369Z,188.85
2022-10-19T05:43:57.258Z,289.75
2022-10-19T05:44:58.688Z,219.25
2022-10-19T05:46:03.789Z,203.93
2022-10-19T05:47:05.257Z,215.52
2022-10-19T05:48:06.873Z,273.92
2022-10-19T05:49:09.929Z,140.63
2022-10-19T05:50:11.384Z,216.30
2022-10-19T05:51:15.804Z,128.85
2022-10-19T05:52:17.237Z,361.02
2022-10-19T05:53:18.690Z,191.60
2022-10-19T05:54:22.668Z,149.63
2022-10-19T05:55:27.809Z,79.60
2022-10-19T05:56:31.578Z,261.75
2022-10-19T05:57:33.359Z,245.07
2022-10-19T05:58:35.905Z,286.92
2022-10-19T05:59:37.377Z,198.95
2022-10-19T06:00:38.804Z,425.75
2022-10-19T06:01:40.428Z,392.42
2022-10-19T06:02:41.943Z,238.27
2022-10-19T06:03:43.437Z,375.27
2022-10-19T06:04:45.037Z,464.23
2022-10-19T06:05:46.477Z,248.82
2022-10-19T06:06:47.919Z,383.08
2022-10-19T06:07:49.367Z,494.00
2022-10-19T06:08:51.843Z,464.08
2022-10-19T06:09:53.262Z,587.65
2022-10-19T06:11:05.099Z,510.30
2022-10-19T06:12:06.539Z,451.60
2022-10-19T06:13:08.005Z,448.95
2022-10-19T06:14:12.877Z,428.80
2022-10-19T06:15:14.442Z,399.05
2022-10-19T06:16:17.565Z,328.73
2022-10-19T06:17:19.006Z,204.40
2022-10-19T06:18:20.466Z,411.65
2022-10-19T06:19:21.900Z,477.00
2022-10-19T06:20:23.391Z,500.77
2022-10-19T06:21:26.744Z,415.05
2022-10-19T06:22:28.219Z,492.90
2022-10-19T06:23:29.886Z,394.58
2022-10-19T06:24:31.476Z,425.00
2022-10-19T06:25:33.129Z,488.95
2022-10-19T06:26:35.928Z,375.75
2022-10-19T06:27:37.702Z,372.70
2022-10-19T06:28:41.115Z,395.52
2022-10-19T06:29:42.551Z,437.70
2022-10-19T06:30:44.082Z,433.88
2022-10-19T06:31:45.573Z,497.45
2022-10-19T06:32:47.039Z,491.63
2022-10-19T06:33:49.691Z,469.08
2022-10-19T06:34:55.744Z,451.83
2022-10-19T06:36:05.335Z,502.27
2022-10-19T06:37:06.791Z,497.17
2022-10-19T06:38:08.217Z,465.50
2022-10-19T06:39:09.643Z,446.83
2022-10-19T06:40:11.539Z,368.45
2022-10-19T06:41:13.251Z,311.90
2022-10-19T06:42:15.995Z,266.25
2022-10-19T06:43:17.425Z,342.92
2022-10-19T06:44:18.963Z,437.50
2022-10-19T06:45:20.392Z,385.30
2022-10-19T06:46:23.440Z,373.63
2022-10-19T06:47:24.960Z,414.45
2022-10-19T06:48:26.401Z,387.35
2022-10-19T06:49:28.142Z,374.30
2022-10-19T06:50:29.568Z,415.45
2022-10-19T06:51:32.227Z,397.88
2022-10-19T06:52:34.237Z,463.25
2022-10-19T06:53:36.786Z,493.67
2022-10-19T06:54:38.211Z,464.15
2022-10-19T06:55:39.618Z,515.53
2022-10-19T06:56:41.105Z,459.48
2022-10-19T06:57:43.981Z,435.50
2022-10-19T06:58:45.584Z,453.38
2022-10-19T06:59:49.048Z,424.98
2022-10-19T07:00:56.505Z,410.60
2022-10-19T07:01:57.950Z,438.67
2022-10-19T07:02:59.413Z,416.73
2022-10-19T07:04:00.891Z,444.85
2022-10-19T07:05:06.893Z,482.77
2022-10-19T07:06:10.275Z,466.73
2022-10-19T07:07:11.806Z,458.98
2022-10-19T07:08:13.332Z,473.10
2022-10-19T07:09:14.823Z,528.45
2022-10-19T07:10:16.629Z,589.70
2022-10-19T07:11:20.748Z,560.00
2022-10-19T07:12:22.196Z,589.72
2022-10-19T07:13:25.719Z,569.80
2022-10-19T07:14:27.137Z,624.92
2022-10-19T07:15:28.584Z,749.20
2022-10-19T07:16:30.044Z,655.08
2022-10-19T07:17:31.765Z,596.00
2022-10-19T07:18:34.707Z,591.38
2022-10-19T07:19:36.183Z,602.92
2022-10-19T07:20:37.886Z,560.20
2022-10-19T07:21:39.325Z,396.65
2022-10-19T07:22:40.730Z,271.70
2022-10-19T07:23:43.508Z,481.35
2022-10-19T07:24:45.502Z,344.67
2022-10-19T07:25:46.924Z,419.98
2022-10-19T07:26:48.369Z,428.92
2022-10-19T07:27:49.821Z,540.03
2022-10-19T07:28:53.531Z,346.80
2022-10-19T07:29:54.960Z,125.90
2022-10-19T07:30:56.636Z,40.13
2022-10-19T07:31:58.070Z,42.55
2022-10-19T07:32:59.492Z,58.78
2022-10-19T07:34:03.033Z,83.78
2022-10-19T07:35:05.517Z,88.60
2022-10-19T07:36:09.141Z,53.13
2022-10-19T07:37:10.626Z,114.32
2022-10-19T07:38:12.112Z,73.72
2022-10-19T07:39:16.917Z,95.13
2022-10-19T07:40:18.368Z,75.90
2022-10-19T07:41:21.834Z,86.78
2022-10-19T07:42:23.291Z,54.50
2022-10-19T07:43:24.751Z,57.53
2022-10-19T07:44:28.842Z,44.50
2022-10-19T07:45:30.480Z,128.05
2022-10-19T07:46:32.503Z,68.10
2022-10-19T07:47:34.825Z,60.78
2022-10-19T07:48:36.720Z,103.50
2022-10-19T07:49:38.188Z,72.75
2022-10-19T07:50:39.640Z,106.85
2022-10-19T07:51:41.154Z,241.55
2022-10-19T07:52:42.979Z,57.70
2022-10-19T07:53:44.752Z,178.52
2022-10-19T07:54:46.199Z,73.70
2022-10-19T07:55:47.613Z,82.13
2022-10-19T07:56:49.059Z,75.55
2022-10-19T07:57:50.527Z,41.60
2022-10-19T07:58:53.476Z,85.82
2022-10-19T07:59:56.315Z,69.20
2022-10-19T08:01:00.232Z,127.10
2022-10-19T08:02:01.711Z,72.00
2022-10-19T08:05:46.154Z,65.45
2022-10-19T08:06:47.624Z,59.40
2022-10-19T08:07:49.067Z,44.40
2022-10-19T08:08:51.347Z,44.72
2022-10-19T08:09:54.118Z,35.17
2022-10-19T08:10:56.627Z,57.58
2022-10-19T08:11:58.149Z,66.80
2022-10-19T08:12:59.567Z,71.60
2022-10-19T08:14:01.507Z,79.93
2022-10-19T08:15:05.162Z,60.53
2022-10-19T08:16:23.091Z,63.55
2022-10-19T08:17:24.538Z,72.90
2022-10-19T08:18:26.368Z,55.92
2022-10-19T08:19:27.847Z,58.05
2022-10-19T08:20:29.329Z,47.78
2022-10-19T08:21:31.151Z,46.30
2022-10-19T08:22:33.052Z,68.10
2022-10-19T08:23:34.737Z,52.25
2022-10-19T08:24:36.189Z,49.83
2022-10-19T08:25:37.654Z,45.78
2022-10-19T08:26:39.872Z,45.83
2022-10-19T08:27:41.600Z,57.25
2022-10-19T08:28:43.109Z,57.53
2022-10-19T08:29:44.560Z,41.08
2022-10-19T08:30:47.349Z,44.47
2022-10-19T08:31:49.635Z,63.78
2022-10-19T08:32:51.204Z,84.25
2022-10-19T08:33:52.638Z,57.28
2022-10-19T08:34:54.101Z,81.57
2022-10-19T08:35:55.515Z,62.33
2022-10-19T08:36:56.969Z,84.90
2022-10-19T08:37:58.868Z,93.75
2022-10-19T08:39:00.276Z,71.53
2022-10-19T08:40:01.721Z,57.63
2022-10-19T08:41:18.385Z,59.83
2022-10-19T08:42:28.303Z,86.00
2022-10-19T08:43:35.766Z,108.50
2022-10-19T08:45:14.031Z,71.88
2022-10-19T08:46:24.630Z,54.67
2022-10-19T08:47:51.998Z,131.27
2022-10-19T08:48:53.454Z,79.93
2022-10-19T08:49:55.290Z,89.88
2022-10-19T08:50:58.984Z,71.05
2022-10-19T08:52:04.431Z,76.22
2022-10-19T08:53:08.215Z,79.40
2022-10-19T08:54:16.805Z,99.70
2022-10-19T08:55:27.537Z,99.00
2022-10-19T08:56:49.990Z,153.05
2022-10-19T08:58:00.143Z,85.45
2022-10-19T08:59:10.464Z,97.60
2022-10-19T09:00:20.791Z,160.52
2022-10-19T09:01:37.534Z,132.52
2022-10-19T09:02:56.713Z,94.95
2022-10-19T09:04:03.532Z,107.43
2022-10-19T09:05:13.420Z,164.68
2022-10-19T09:06:23.135Z,127.22
2022-10-19T09:07:28.927Z,112.40
2022-10-19T09:08:30.575Z,79.03
2022-10-19T09:09:34.006Z,225.25
2022-10-19T09:10:38.674Z,228.55
2022-10-19T09:11:44.623Z,120.72
2022-10-19T09:12:53.850Z,100.95
2022-10-19T09:14:05.376Z,83.07
2022-10-19T09:15:12.744Z,84.88
2022-10-19T09:16:17.304Z,69.63
2022-10-19T09:17:20.391Z,96.40
2022-10-19T09:18:25.507Z,72.55
2022-10-19T09:19:28.377Z,73.72
2022-10-19T09:20:38.187Z,59.88
2022-10-19T09:21:47.606Z,74.20
2022-10-19T09:22:57.974Z,76.60
2022-10-19T09:24:05.396Z,72.43
2022-10-19T09:25:14.119Z,168.57
2022-10-19T09:26:17.864Z,82.05
2022-10-19T09:27:22.529Z,109.50
2022-10-19T09:28:43.377Z,63.42
2022-10-19T09:29:50.804Z,72.35
2022-10-19T09:30:55.815Z,89.43
2022-10-19T09:32:00.367Z,73.25
2022-10-19T09:33:03.412Z,63.13
2022-10-19T09:34:08.595Z,59.10
2022-10-19T09:35:22.662Z,54.42
2022-10-19T09:36:49.436Z,59.58
2022-10-19T09:37:51.384Z,47.58
2022-10-19T09:38:52.945Z,54.22
2022-10-19T09:39:56.007Z,60.67
2022-10-19T09:40:57.730Z,49.72
2022-10-19T09:42:04.643Z,43.72
2022-10-19T09:43:07.218Z,54.88
2022-10-19T09:44:08.703Z,51.85
2022-10-19T09:45:19.719Z,59.20
2022-10-19T09:46:30.808Z,55.70
2022-10-19T09:47:35.228Z,50.38
2022-10-19T09:48:47.494Z,48.33
2022-10-19T09:49:49.107Z,41.53
2022-10-19T09:50:55.564Z,41.47
2022-10-19T09:51:56.990Z,46.10
2022-10-19T09:53:02.627Z,40.83
2022-10-19T09:54:04.090Z,50.42
2022-10-19T09:55:07.156Z,52.17
2022-10-19T09:56:16.775Z,59.67
2022-10-19T09:57:21.030Z,49.90
2022-10-19T09:58:27.990Z,60.30
2022-10-19T09:59:36.406Z,55.08
2022-10-19T10:00:39.744Z,53.72
2022-10-19T10:01:43.532Z,64.82
2022-10-19T10:02:50.079Z,56.97
2022-10-19T10:03:55.851Z,59.20
2022-10-19T10:05:05.094Z,59.10
2022-10-19T10:06:08.312Z,58.00
2022-10-19T10:07:16.073Z,88.85
2022-10-19T10:08:20.600Z,54.28
2022-10-19T10:09:25.716Z,50.70
2022-10-19T10:10:30.640Z,54.08
2022-10-19T10:11:35.559Z,56.25
2022-10-19T10:12:39.671Z,63.28
2022-10-19T10:13:43.889Z,56.50
2022-10-19T10:14:45.481Z,55.20
2022-10-19T10:15:49.381Z,67.07
2022-10-19T10:16:55.193Z,50.20
2022-10-19T10:17:58.104Z,60.90
2022-10-19T10:19:04.844Z,60.05
2022-10-19T10:20:20.299Z,52.95
2022-10-19T10:21:25.754Z,54.00
2022-10-19T10:22:31.121Z,47.40
2022-10-19T10:23:34.034Z,78.60
2022-10-19T10:24:35.481Z,65.35
2022-10-19T10:25:37.061Z,62.78
2022-10-19T10:26:39.948Z,55.35
2022-10-19T10:27:41.414Z,44.08
2022-10-19T10:28:47.728Z,61.72
2022-10-19T10:31:04.379Z,57.47
2022-10-19T10:32:11.951Z,48.38
2022-10-19T10:33:27.105Z,55.90
2022-10-19T10:34:51.976Z,64.50
2022-10-19T10:36:01.059Z,52.78
2022-10-19T10:37:05.596Z,62.20
2022-10-19T10:38:12.527Z,47.97
2022-10-19T10:39:17.291Z,67.93
2022-10-19T10:40:23.790Z,50.90
2022-10-19T10:41:28.513Z,71.95
2022-10-19T10:42:34.915Z,56.67
2022-10-19T10:43:48.836Z,55.05
2022-10-19T10:44:53.123Z,54.92
2022-10-19T10:45:59.377Z,51.83
2022-10-19T10:47:02.343Z,49.15
2022-10-19T10:48:17.443Z,49.33
2022-10-19T10:49:22.458Z,49.03
2022-10-19T10:50:32.098Z,49.60
2022-10-19T10:51:38.733Z,52.97
2022-10-19T10:52:40.495Z,56.35
2022-10-19T10:53:43.047Z,72.13
2022-10-19T10:54:58.700Z,58.83
2022-10-19T10:56:00.215Z,46.05
2022-10-19T10:57:11.561Z,53.70
2022-10-19T10:58:17.162Z,43.00
2022-10-19T10:59:26.344Z,42.38
2022-10-19T11:00:29.515Z,46.10
2022-10-19T11:01:36.450Z,49.47
2022-10-19T11:02:44.315Z,54.55
2022-10-19T11:03:51.081Z,43.67
2022-10-19T11:04:59.184Z,46.95
2022-10-19T11:06:02.102Z,40.60
2022-10-19T11:07:16.923Z,44.80
2022-10-19T11:08:25.051Z,47.17
2022-10-19T11:09:31.183Z,45.58
2022-10-19T11:10:36.985Z,42.30
2022-10-19T11:11:44.532Z,38.55
2022-10-19T11:12:50.768Z,41.05
2022-10-19T11:13:56.683Z,49.33
2022-10-19T11:15:04.321Z,40.75
2022-10-19T11:16:12.635Z,37.50
2022-10-19T11:17:18.718Z,49.20
2022-10-19T11:18:24.878Z,48.63
2022-10-19T11:19:31.888Z,43.70
2022-10-19T11:20:35.668Z,38.95
2022-10-19T11:21:46.187Z,42.22
2022-10-19T11:22:54.814Z,35.17
2022-10-19T11:24:09.329Z,33.55
2022-10-19T11:25:32.286Z,34.60
2022-10-19T11:26:52.154Z,38.28
2022-10-19T11:28:03.892Z,32.83
2022-10-19T11:29:23.523Z,34.78
2022-10-19T11:30:26.198Z,36.40
2022-10-19T11:31:38.658Z,31.60
2022-10-19T11:32:49.723Z,33.13
2022-10-19T11:34:00.074Z,33.42
2022-10-19T11:35:25.165Z,30.98
2022-10-19T11:36:42.476Z,30.95
2022-10-19T11:38:18.244Z,30.65
2022-10-19T11:39:41.013Z,31.95
2022-10-19T11:41:16.493Z,30.90
2022-10-19T11:42:23.775Z,28.55
2022-10-19T11:43:33.584Z,27.63
2022-10-19T11:44:47.386Z,30.45
2022-10-19T11:45:55.651Z,25.27
2022-10-19T11:47:17.980Z,24.23
2022-10-19T11:48:44.107Z,25.23
2022-10-19T11:49:57.185Z,22.88
2022-10-19T11:51:17.361Z,24.05
2022-10-19T11:52:32.768Z,22.30
2022-10-19T11:53:46.452Z,22.23
2022-10-19T11:55:01.997Z,21.85
2022-10-19T11:56:10.300Z,20.80
2022-10-19T11:57:16.393Z,23.70
2022-10-19T11:58:35.042Z,24.08
2022-10-19T11:59:49.667Z,22.33
2022-10-19T12:00:58.898Z,24.27
2022-10-19T12:02:10.497Z,22.95
2022-10-19T12:03:47.725Z,25.20
2022-10-19T12:04:54.299Z,22.80
2022-10-19T12:06:05.391Z,23.85
2022-10-19T12:07:20.984Z,22.27
2022-10-19T12:08:41.667Z,27.08
2022-10-19T12:09:50.859Z,26.50
2022-10-19T12:11:01.452Z,24.27
2022-10-19T12:12:18.636Z,27.05
2022-10-19T12:13:27.176Z,24.30
2022-10-19T12:14:33.823Z,21.90
2022-10-19T12:15:39.588Z,24.65
2022-10-19T12:16:45.681Z,22.88
2022-10-19T12:17:51.622Z,23.10
2022-10-19T12:18:58.945Z,23.77
2022-10-19T12:20:03.528Z,24.05
2022-10-19T12:21:11.533Z,22.08
2022-10-19T12:22:18.277Z,22.55
2022-10-19T12:23:28.745Z,21.55
2022-10-19T12:24:32.569Z,20.20
2022-10-19T12:25:38.668Z,21.55
2022-10-19T12:26:40.837Z,20.77
2022-10-19T12:27:42.903Z,17.52
2022-10-19T12:28:50.514Z,17.70
2022-10-19T12:29:53.045Z,20.17
2022-10-19T12:30:55.494Z,23.02
2022-10-19T12:31:59.541Z,23.63
2022-10-19T12:33:14.389Z,22.65
2022-10-19T12:34:26.185Z,21.63
2022-10-19T12:35:55.352Z,22.38
2022-10-19T12:37:02.874Z,20.65
2022-10-19T12:38:10.839Z,21.15
2022-10-19T12:39:22.768Z,21.10
2022-10-19T12:40:32.849Z,22.20
2022-10-19T12:41:44.216Z,18.63
2022-10-19T12:44:11.598Z,19.90
2022-10-19T12:45:25.980Z,19.48
2022-10-19T12:46:37.316Z,18.88
2022-10-19T12:48:40.013Z,19.13
2022-10-19T12:49:47.533Z,17.20
2022-10-19T12:51:07.645Z,17.33
2022-10-19T12:52:09.588Z,19.70
2022-10-19T12:53:23.458Z,17.38
2022-10-19T12:54:28.022Z,16.88
2022-10-19T12:55:30.804Z,18.92
2022-10-19T12:56:48.327Z,16.58
2022-10-19T12:57:58.793Z,16.27
2022-10-19T12:59:01.623Z,16.77
2022-10-19T13:00:18.012Z,16.27
2022-10-19T13:01:23.022Z,18.70
2022-10-19T13:02:28.955Z,16.90
2022-10-19T13:03:33.069Z,17.13
2022-10-19T13:04:35.862Z,16.50
2022-10-19T13:05:38.665Z,17.13
2022-10-19T13:06:43.500Z,15.68
2022-10-19T13:07:48.684Z,15.38
2022-10-19T13:08:57.243Z,14.77
2022-10-19T13:10:02.707Z,14.73
2022-10-19T13:11:07.320Z,18.77
2022-10-19T13:12:40.783Z,15.40
2022-10-19T13:14:06.838Z,14.52
2022-10-19T13:15:55.421Z,15.35
2022-10-19T13:16:58.665Z,16.77
2022-10-19T13:18:00.525Z,16.15
2022-10-19T13:19:04.747Z,13.70
2022-10-19T13:20:43.642Z,14.48
2022-10-19T13:22:26.937Z,16.25
2022-10-19T13:23:39.676Z,15.90
2022-10-19T13:26:30.214Z,13.80
2022-10-19T13:27:39.153Z,14.85
2022-10-19T13:28:52.823Z,15.80
2022-10-19T13:29:54.452Z,15.60
2022-10-19T13:31:08.172Z,14.90
2022-10-19T13:32:36.411Z,15.13
2022-10-19T13:33:44.878Z,16.13
2022-10-19T13:34:47.008Z,17.65
2022-10-19T13:35:48.871Z,14.60
2022-10-19T13:37:01.940Z,15.88
2022-10-19T13:38:27.693Z,16.15
2022-10-19T13:39:30.021Z,18.42
2022-10-19T13:40:31.540Z,17.05
2022-10-19T13:41:52.670Z,18.00
2022-10-19T13:42:58.133Z,16.15
2022-10-19T13:44:03.027Z,15.07
2022-10-19T13:45:05.502Z,15.27
2022-10-19T13:46:11.797Z,13.88
2022-10-19T13:47:30.833Z,16.80
2022-10-19T13:48:41.511Z,14.32
2022-10-19T13:50:13.585Z,15.25
2022-10-19T13:52:57.595Z,13.48
2022-10-19T13:54:10.230Z,14.38
2022-10-19T13:55:24.617Z,18.33
2022-10-19T13:56:41.765Z,13.90
2022-10-19T13:58:00.556Z,13.48
2022-10-19T13:59:35.364Z,14.90
2022-10-19T14:01:00.072Z,16.13
2022-10-19T14:02:44.200Z,14.73